Terminal Aerodrome Forecast
Issued by NWS Cleveland, OH

Home | Current Version | Previous Version | Graphics & Text | Print | Product List | Glossary On
Versions: 1 2 3 4 5 6 7 8 9 10 11 12 13 14 15 16 17 18 19 20 21 22 23 24 25 26
106
FTUS41 KCLE 221955 AAA
TAFCLE
TAF AMD
KCLE 221955Z 2220/2324 20012KT P6SM SCT050 BKN120
     FM230700 20012KT P6SM -SHRA SCT035 OVC045
     FM231000 20010KT P6SM -SHRA VCTS SCT010CB OVC030
     FM231800 22012KT 5SM -SHRA VCTS SCT008CB OVC015=

USA.gov is the U.S. government's official web portal to all federal, state and local government web resources and services.